sensor_id;sensor_type;location;lat;lon;timestamp;P1;durP1;ratioP1;P2;durP2;ratioP2
12110;SDS011;6119;52.372;8.990;2023-10-08T00:01:38;0.43;;;0.27;;
12110;SDS011;6119;52.372;8.990;2023-10-08T00:04:28;0.10;;;0.10;;
12110;SDS011;6119;52.372;8.990;2023-10-08T00:07:16;0.23;;;0.23;;
12110;SDS011;6119;52.372;8.990;2023-10-08T00:10:06;0.30;;;0.30;;
12110;SDS011;6119;52.372;8.990;2023-10-08T00:12:54;0.30;;;0.30;;
12110;SDS011;6119;52.372;8.990;2023-10-08T00:15:42;0.13;;;0.13;;
12110;SDS011;6119;52.372;8.990;2023-10-08T00:18:38;0.83;;;0.20;;
12110;SDS011;6119;52.372;8.990;2023-10-08T00:21:27;0.40;;;0.40;;
12110;SDS011;6119;52.372;8.990;2023-10-08T00:24:18;0.30;;;0.30;;
12110;SDS011;6119;52.372;8.990;2023-10-08T00:27:11;0.40;;;0.40;;
12110;SDS011;6119;52.372;8.990;2023-10-08T00:29:59;0.37;;;0.37;;
12110;SDS011;6119;52.372;8.990;2023-10-08T00:32:57;0.30;;;0.30;;
12110;SDS011;6119;52.372;8.990;2023-10-08T00:35:44;0.20;;;0.20;;
12110;SDS011;6119;52.372;8.990;2023-10-08T00:38:31;0.20;;;0.20;;
12110;SDS011;6119;52.372;8.990;2023-10-08T00:41:18;0.30;;;0.30;;
12110;SDS011;6119;52.372;8.990;2023-10-08T00:44:07;0.20;;;0.20;;
12110;SDS011;6119;52.372;8.990;2023-10-08T00:46:57;0.73;;;0.20;;
12110;SDS011;6119;52.372;8.990;2023-10-08T00:49:48;0.10;;;0.10;;
12110;SDS011;6119;52.372;8.990;2023-10-08T00:52:39;0.00;;;0.00;;
12110;SDS011;6119;52.372;8.990;2023-10-08T00:55:30;0.20;;;0.20;;
12110;SDS011;6119;52.372;8.990;2023-10-08T00:58:19;0.20;;;0.20;;
12110;SDS011;6119;52.372;8.990;2023-10-08T01:01:11;0.20;;;0.20;;
12110;SDS011;6119;52.372;8.990;2023-10-08T01:04:01;0.13;;;0.13;;
12110;SDS011;6119;52.372;8.990;2023-10-08T01:06:58;0.30;;;0.30;;
12110;SDS011;6119;52.372;8.990;2023-10-08T01:09:46;0.50;;;0.30;;
12110;SDS011;6119;52.372;8.990;2023-10-08T01:12:35;1.03;;;0.40;;
12110;SDS011;6119;52.372;8.990;2023-10-08T01:15:29;3.23;;;1.10;;
12110;SDS011;6119;52.372;8.990;2023-10-08T01:18:20;2.07;;;0.77;;
12110;SDS011;6119;52.372;8.990;2023-10-08T01:21:17;3.27;;;0.90;;
12110;SDS011;6119;52.372;8.990;2023-10-08T01:24:20;2.57;;;0.93;;
12110;SDS011;6119;52.372;8.990;2023-10-08T01:27:09;4.80;;;1.60;;
12110;SDS011;6119;52.372;8.990;2023-10-08T01:29:57;2.67;;;1.00;;
12110;SDS011;6119;52.372;8.990;2023-10-08T01:32:54;3.77;;;0.97;;
12110;SDS011;6119;52.372;8.990;2023-10-08T01:35:41;1.13;;;0.80;;
12110;SDS011;6119;52.372;8.990;2023-10-08T01:38:28;1.47;;;0.93;;
12110;SDS011;6119;52.372;8.990;2023-10-08T01:41:17;4.07;;;1.10;;
12110;SDS011;6119;52.372;8.990;2023-10-08T01:44:14;2.20;;;1.00;;
12110;SDS011;6119;52.372;8.990;2023-10-08T01:47:01;3.73;;;1.17;;
12110;SDS011;6119;52.372;8.990;2023-10-08T01:49:49;2.47;;;0.90;;
12110;SDS011;6119;52.372;8.990;2023-10-08T01:52:39;1.90;;;1.20;;
12110;SDS011;6119;52.372;8.990;2023-10-08T01:55:26;2.63;;;1.10;;
12110;SDS011;6119;52.372;8.990;2023-10-08T01:58:20;2.67;;;1.00;;
12110;SDS011;6119;52.372;8.990;2023-10-08T02:01:09;6.53;;;1.30;;
12110;SDS011;6119;52.372;8.990;2023-10-08T02:03:57;3.23;;;1.20;;
12110;SDS011;6119;52.372;8.990;2023-10-08T02:06:44;5.30;;;1.10;;
12110;SDS011;6119;52.372;8.990;2023-10-08T02:09:32;3.43;;;1.37;;
12110;SDS011;6119;52.372;8.990;2023-10-08T02:12:19;8.47;;;1.63;;
12110;SDS011;6119;52.372;8.990;2023-10-08T02:15:08;3.37;;;1.07;;
12110;SDS011;6119;52.372;8.990;2023-10-08T02:17:56;4.10;;;1.30;;
12110;SDS011;6119;52.372;8.990;2023-10-08T02:20:44;4.47;;;1.27;;
12110;SDS011;6119;52.372;8.990;2023-10-08T02:23:30;3.57;;;1.10;;
12110;SDS011;6119;52.372;8.990;2023-10-08T02:26:19;2.70;;;1.10;;
12110;SDS011;6119;52.372;8.990;2023-10-08T02:29:06;1.90;;;1.10;;
12110;SDS011;6119;52.372;8.990;2023-10-08T02:31:58;4.70;;;1.50;;
12110;SDS011;6119;52.372;8.990;2023-10-08T02:34:45;1.93;;;1.00;;
12110;SDS011;6119;52.372;8.990;2023-10-08T02:37:32;3.73;;;1.00;;
12110;SDS011;6119;52.372;8.990;2023-10-08T02:40:20;5.03;;;1.10;;
12110;SDS011;6119;52.372;8.990;2023-10-08T02:43:12;5.83;;;1.03;;
12110;SDS011;6119;52.372;8.990;2023-10-08T02:46:00;4.87;;;1.10;;
12110;SDS011;6119;52.372;8.990;2023-10-08T02:48:48;4.17;;;1.43;;
12110;SDS011;6119;52.372;8.990;2023-10-08T02:51:38;4.03;;;0.90;;
12110;SDS011;6119;52.372;8.990;2023-10-08T02:54:26;3.70;;;0.77;;
12110;SDS011;6119;52.372;8.990;2023-10-08T02:57:21;2.13;;;0.90;;
12110;SDS011;6119;52.372;8.990;2023-10-08T03:00:08;2.73;;;1.10;;
12110;SDS011;6119;52.372;8.990;2023-10-08T03:02:58;7.10;;;1.30;;
12110;SDS011;6119;52.372;8.990;2023-10-08T03:05:49;6.23;;;1.43;;
12110;SDS011;6119;52.372;8.990;2023-10-08T03:08:38;5.17;;;1.30;;
12110;SDS011;6119;52.372;8.990;2023-10-08T03:11:26;4.87;;;1.10;;
12110;SDS011;6119;52.372;8.990;2023-10-08T03:14:13;5.67;;;1.20;;
12110;SDS011;6119;52.372;8.990;2023-10-08T03:17:02;2.70;;;1.23;;
12110;SDS011;6119;52.372;8.990;2023-10-08T03:19:53;4.57;;;1.30;;
12110;SDS011;6119;52.372;8.990;2023-10-08T03:22:47;2.57;;;0.83;;
12110;SDS011;6119;52.372;8.990;2023-10-08T03:25:34;7.03;;;1.40;;
12110;SDS011;6119;52.372;8.990;2023-10-08T03:28:26;2.47;;;1.10;;
12110;SDS011;6119;52.372;8.990;2023-10-08T03:31:13;2.73;;;1.10;;
12110;SDS011;6119;52.372;8.990;2023-10-08T03:34:02;4.60;;;1.03;;
12110;SDS011;6119;52.372;8.990;2023-10-08T03:36:51;6.30;;;1.30;;
12110;SDS011;6119;52.372;8.990;2023-10-08T03:39:46;2.07;;;1.00;;
12110;SDS011;6119;52.372;8.990;2023-10-08T03:42:45;6.93;;;1.43;;
12110;SDS011;6119;52.372;8.990;2023-10-08T03:45:34;7.57;;;1.53;;
12110;SDS011;6119;52.372;8.990;2023-10-08T03:48:38;3.70;;;1.30;;
12110;SDS011;6119;52.372;8.990;2023-10-08T03:51:24;5.80;;;1.63;;
12110;SDS011;6119;52.372;8.990;2023-10-08T03:54:13;3.63;;;1.30;;
12110;SDS011;6119;52.372;8.990;2023-10-08T03:57:05;3.80;;;1.17;;
12110;SDS011;6119;52.372;8.990;2023-10-08T03:59:59;3.23;;;1.17;;
12110;SDS011;6119;52.372;8.990;2023-10-08T04:02:46;6.07;;;1.57;;
12110;SDS011;6119;52.372;8.990;2023-10-08T04:05:40;3.93;;;1.37;;
12110;SDS011;6119;52.372;8.990;2023-10-08T04:08:44;3.90;;;1.43;;
12110;SDS011;6119;52.372;8.990;2023-10-08T04:11:43;4.00;;;1.43;;
12110;SDS011;6119;52.372;8.990;2023-10-08T04:14:45;3.00;;;1.00;;
12110;SDS011;6119;52.372;8.990;2023-10-08T04:17:32;4.53;;;1.30;;
12110;SDS011;6119;52.372;8.990;2023-10-08T04:20:28;4.97;;;1.37;;
12110;SDS011;6119;52.372;8.990;2023-10-08T04:23:23;4.03;;;1.53;;
12110;SDS011;6119;52.372;8.990;2023-10-08T04:26:10;4.50;;;1.10;;
12110;SDS011;6119;52.372;8.990;2023-10-08T04:28:58;4.33;;;1.57;;
12110;SDS011;6119;52.372;8.990;2023-10-08T04:31:49;2.83;;;1.10;;
12110;SDS011;6119;52.372;8.990;2023-10-08T04:34:46;2.47;;;0.90;;
12110;SDS011;6119;52.372;8.990;2023-10-08T04:37:34;2.40;;;1.20;;
12110;SDS011;6119;52.372;8.990;2023-10-08T04:40:25;2.20;;;1.00;;
12110;SDS011;6119;52.372;8.990;2023-10-08T04:43:19;3.73;;;1.17;;
12110;SDS011;6119;52.372;8.990;2023-10-08T04:46:10;3.07;;;1.13;;
12110;SDS011;6119;52.372;8.990;2023-10-08T04:49:08;2.80;;;1.10;;
12110;SDS011;6119;52.372;8.990;2023-10-08T04:52:03;6.33;;;1.40;;
12110;SDS011;6119;52.372;8.990;2023-10-08T04:54:54;4.20;;;1.03;;
12110;SDS011;6119;52.372;8.990;2023-10-08T04:57:41;2.20;;;1.03;;
12110;SDS011;6119;52.372;8.990;2023-10-08T05:00:28;6.63;;;1.10;;
12110;SDS011;6119;52.372;8.990;2023-10-08T05:03:29;2.47;;;1.27;;
12110;SDS011;6119;52.372;8.990;2023-10-08T05:06:30;3.87;;;1.07;;
12110;SDS011;6119;52.372;8.990;2023-10-08T05:09:35;3.70;;;1.00;;
12110;SDS011;6119;52.372;8.990;2023-10-08T05:12:30;5.27;;;1.40;;
12110;SDS011;6119;52.372;8.990;2023-10-08T05:15:22;4.23;;;1.13;;
12110;SDS011;6119;52.372;8.990;2023-10-08T05:18:18;1.07;;;0.87;;
12110;SDS011;6119;52.372;8.990;2023-10-08T05:21:23;3.70;;;1.57;;
12110;SDS011;6119;52.372;8.990;2023-10-08T05:24:20;2.13;;;0.97;;
12110;SDS011;6119;52.372;8.990;2023-10-08T05:27:12;1.93;;;1.07;;
12110;SDS011;6119;52.372;8.990;2023-10-08T05:30:23;4.27;;;1.17;;
12110;SDS011;6119;52.372;8.990;2023-10-08T05:33:13;5.73;;;1.30;;
12110;SDS011;6119;52.372;8.990;2023-10-08T05:36:10;3.43;;;1.13;;
12110;SDS011;6119;52.372;8.990;2023-10-08T05:39:03;3.07;;;1.00;;
12110;SDS011;6119;52.372;8.990;2023-10-08T05:42:07;4.27;;;1.30;;
12110;SDS011;6119;52.372;8.990;2023-10-08T05:44:58;5.93;;;1.10;;
12110;SDS011;6119;52.372;8.990;2023-10-08T05:47:59;2.17;;;1.30;;
12110;SDS011;6119;52.372;8.990;2023-10-08T05:51:05;3.57;;;1.37;;
12110;SDS011;6119;52.372;8.990;2023-10-08T05:53:59;2.27;;;1.27;;
12110;SDS011;6119;52.372;8.990;2023-10-08T05:56:56;3.30;;;1.00;;
12110;SDS011;6119;52.372;8.990;2023-10-08T05:59:53;1.37;;;1.00;;
12110;SDS011;6119;52.372;8.990;2023-10-08T06:02:53;2.27;;;1.53;;
12110;SDS011;6119;52.372;8.990;2023-10-08T06:05:57;3.57;;;1.50;;
12110;SDS011;6119;52.372;8.990;2023-10-08T06:09:04;2.27;;;1.50;;
12110;SDS011;6119;52.372;8.990;2023-10-08T06:12:06;2.93;;;1.60;;
12110;SDS011;6119;52.372;8.990;2023-10-08T06:14:56;2.83;;;1.60;;
12110;SDS011;6119;52.372;8.990;2023-10-08T06:17:56;2.00;;;1.40;;
12110;SDS011;6119;52.372;8.990;2023-10-08T06:20:49;1.97;;;1.50;;
12110;SDS011;6119;52.372;8.990;2023-10-08T06:23:40;2.03;;;1.57;;
12110;SDS011;6119;52.372;8.990;2023-10-08T06:26:28;5.80;;;1.93;;
12110;SDS011;6119;52.372;8.990;2023-10-08T06:29:19;3.07;;;2.13;;
12110;SDS011;6119;52.372;8.990;2023-10-08T06:32:14;3.10;;;1.77;;
12110;SDS011;6119;52.372;8.990;2023-10-08T06:35:00;2.47;;;1.87;;
12110;SDS011;6119;52.372;8.990;2023-10-08T06:37:48;4.27;;;1.80;;
12110;SDS011;6119;52.372;8.990;2023-10-08T06:40:39;3.07;;;1.57;;
12110;SDS011;6119;52.372;8.990;2023-10-08T06:43:27;4.50;;;2.00;;
12110;SDS011;6119;52.372;8.990;2023-10-08T06:46:14;3.97;;;2.10;;
12110;SDS011;6119;52.372;8.990;2023-10-08T06:49:06;4.50;;;1.80;;
12110;SDS011;6119;52.372;8.990;2023-10-08T06:51:57;2.23;;;1.87;;
12110;SDS011;6119;52.372;8.990;2023-10-08T06:54:44;3.70;;;2.23;;
12110;SDS011;6119;52.372;8.990;2023-10-08T06:57:32;3.90;;;2.00;;
12110;SDS011;6119;52.372;8.990;2023-10-08T07:00:18;2.30;;;1.87;;
12110;SDS011;6119;52.372;8.990;2023-10-08T07:03:22;4.07;;;2.20;;
12110;SDS011;6119;52.372;8.990;2023-10-08T07:06:11;4.63;;;2.30;;
12110;SDS011;6119;52.372;8.990;2023-10-08T07:09:10;3.70;;;2.13;;
12110;SDS011;6119;52.372;8.990;2023-10-08T07:12:07;4.60;;;2.40;;
12110;SDS011;6119;52.372;8.990;2023-10-08T07:14:59;4.80;;;2.40;;
12110;SDS011;6119;52.372;8.990;2023-10-08T07:17:48;4.50;;;3.10;;
12110;SDS011;6119;52.372;8.990;2023-10-08T07:20:37;5.50;;;3.07;;
12110;SDS011;6119;52.372;8.990;2023-10-08T07:23:26;6.47;;;3.10;;
12110;SDS011;6119;52.372;8.990;2023-10-08T07:26:14;4.87;;;2.77;;
12110;SDS011;6119;52.372;8.990;2023-10-08T07:29:03;4.93;;;3.00;;
12110;SDS011;6119;52.372;8.990;2023-10-08T07:31:53;5.93;;;2.90;;
12110;SDS011;6119;52.372;8.990;2023-10-08T07:34:40;4.30;;;2.87;;
12110;SDS011;6119;52.372;8.990;2023-10-08T07:37:29;8.30;;;3.33;;
12110;SDS011;6119;52.372;8.990;2023-10-08T07:40:19;3.90;;;2.77;;
12110;SDS011;6119;52.372;8.990;2023-10-08T07:43:12;9.70;;;3.50;;
12110;SDS011;6119;52.372;8.990;2023-10-08T07:45:59;7.93;;;3.23;;
12110;SDS011;6119;52.372;8.990;2023-10-08T07:48:46;6.80;;;2.90;;
12110;SDS011;6119;52.372;8.990;2023-10-08T07:51:35;4.53;;;2.73;;
12110;SDS011;6119;52.372;8.990;2023-10-08T07:54:22;7.77;;;3.20;;
12110;SDS011;6119;52.372;8.990;2023-10-08T07:57:14;4.37;;;2.93;;
12110;SDS011;6119;52.372;8.990;2023-10-08T08:00:04;8.43;;;2.93;;
12110;SDS011;6119;52.372;8.990;2023-10-08T08:03:08;7.73;;;3.00;;
12110;SDS011;6119;52.372;8.990;2023-10-08T08:05:56;6.13;;;2.83;;
12110;SDS011;6119;52.372;8.990;2023-10-08T08:08:43;7.90;;;2.90;;
12110;SDS011;6119;52.372;8.990;2023-10-08T08:11:30;4.70;;;3.00;;
12110;SDS011;6119;52.372;8.990;2023-10-08T08:14:23;6.33;;;2.93;;
12110;SDS011;6119;52.372;8.990;2023-10-08T08:17:10;4.47;;;2.17;;
12110;SDS011;6119;52.372;8.990;2023-10-08T08:19:59;6.77;;;3.40;;
12110;SDS011;6119;52.372;8.990;2023-10-08T08:23:02;4.00;;;2.67;;
12110;SDS011;6119;52.372;8.990;2023-10-08T08:25:52;5.63;;;2.80;;
12110;SDS011;6119;52.372;8.990;2023-10-08T08:28:52;4.73;;;2.57;;
12110;SDS011;6119;52.372;8.990;2023-10-08T08:31:43;6.30;;;2.83;;
12110;SDS011;6119;52.372;8.990;2023-10-08T08:34:31;7.77;;;2.90;;
12110;SDS011;6119;52.372;8.990;2023-10-08T08:37:18;7.23;;;2.67;;
12110;SDS011;6119;52.372;8.990;2023-10-08T08:40:08;4.73;;;2.20;;
12110;SDS011;6119;52.372;8.990;2023-10-08T08:43:02;5.97;;;2.73;;
12110;SDS011;6119;52.372;8.990;2023-10-08T08:45:51;4.33;;;2.23;;
12110;SDS011;6119;52.372;8.990;2023-10-08T08:48:43;3.97;;;2.20;;
12110;SDS011;6119;52.372;8.990;2023-10-08T08:51:33;4.07;;;1.80;;
12110;SDS011;6119;52.372;8.990;2023-10-08T08:54:21;4.93;;;2.00;;
12110;SDS011;6119;52.372;8.990;2023-10-08T08:57:09;7.30;;;1.83;;
12110;SDS011;6119;52.372;8.990;2023-10-08T08:59:59;7.23;;;2.30;;
12110;SDS011;6119;52.372;8.990;2023-10-08T09:02:47;5.20;;;1.80;;
12110;SDS011;6119;52.372;8.990;2023-10-08T09:05:36;9.80;;;1.50;;
12110;SDS011;6119;52.372;8.990;2023-10-08T09:08:27;5.70;;;1.83;;
12110;SDS011;6119;52.372;8.990;2023-10-08T09:11:16;3.37;;;1.43;;
12110;SDS011;6119;52.372;8.990;2023-10-08T09:14:02;4.10;;;1.60;;
12110;SDS011;6119;52.372;8.990;2023-10-08T09:16:49;4.30;;;1.57;;
12110;SDS011;6119;52.372;8.990;2023-10-08T09:19:36;8.27;;;1.50;;
12110;SDS011;6119;52.372;8.990;2023-10-08T09:22:25;6.63;;;1.53;;
12110;SDS011;6119;52.372;8.990;2023-10-08T09:25:15;8.87;;;1.50;;
12110;SDS011;6119;52.372;8.990;2023-10-08T09:28:07;5.90;;;2.00;;
12110;SDS011;6119;52.372;8.990;2023-10-08T09:30:57;4.90;;;1.67;;
12110;SDS011;6119;52.372;8.990;2023-10-08T09:33:53;6.67;;;1.30;;
12110;SDS011;6119;52.372;8.990;2023-10-08T09:36:40;5.37;;;2.33;;
12110;SDS011;6119;52.372;8.990;2023-10-08T09:39:29;3.07;;;1.20;;
12110;SDS011;6119;52.372;8.990;2023-10-08T09:42:19;8.33;;;1.73;;
12110;SDS011;6119;52.372;8.990;2023-10-08T09:45:08;6.30;;;1.77;;
12110;SDS011;6119;52.372;8.990;2023-10-08T09:47:56;4.03;;;1.30;;
12110;SDS011;6119;52.372;8.990;2023-10-08T09:50:50;4.03;;;1.53;;
12110;SDS011;6119;52.372;8.990;2023-10-08T09:53:43;7.30;;;1.70;;
12110;SDS011;6119;52.372;8.990;2023-10-08T09:56:39;2.90;;;1.30;;
12110;SDS011;6119;52.372;8.990;2023-10-08T09:59:28;9.77;;;1.50;;
12110;SDS011;6119;52.372;8.990;2023-10-08T10:02:14;9.80;;;1.53;;
12110;SDS011;6119;52.372;8.990;2023-10-08T10:05:02;6.47;;;1.50;;
12110;SDS011;6119;52.372;8.990;2023-10-08T10:07:51;3.43;;;1.40;;
12110;SDS011;6119;52.372;8.990;2023-10-08T10:10:41;5.50;;;1.27;;
12110;SDS011;6119;52.372;8.990;2023-10-08T10:13:35;5.97;;;1.60;;
12110;SDS011;6119;52.372;8.990;2023-10-08T10:16:27;8.60;;;1.30;;
12110;SDS011;6119;52.372;8.990;2023-10-08T10:19:17;8.37;;;1.63;;
12110;SDS011;6119;52.372;8.990;2023-10-08T10:22:09;7.47;;;1.63;;
12110;SDS011;6119;52.372;8.990;2023-10-08T10:24:56;5.73;;;1.40;;
12110;SDS011;6119;52.372;8.990;2023-10-08T10:31:09;6.57;;;1.70;;
12110;SDS011;6119;52.372;8.990;2023-10-08T10:34:05;5.67;;;1.80;;
12110;SDS011;6119;52.372;8.990;2023-10-08T10:36:53;5.13;;;1.63;;
12110;SDS011;6119;52.372;8.990;2023-10-08T10:39:50;8.27;;;1.73;;
12110;SDS011;6119;52.372;8.990;2023-10-08T10:42:38;6.03;;;1.80;;
12110;SDS011;6119;52.372;8.990;2023-10-08T10:45:29;5.63;;;2.20;;
12110;SDS011;6119;52.372;8.990;2023-10-08T10:48:25;6.43;;;1.90;;
12110;SDS011;6119;52.372;8.990;2023-10-08T10:51:20;5.17;;;1.50;;
12110;SDS011;6119;52.372;8.990;2023-10-08T10:54:07;3.80;;;1.73;;
12110;SDS011;6119;52.372;8.990;2023-10-08T10:56:55;7.10;;;1.83;;
12110;SDS011;6119;52.372;8.990;2023-10-08T10:59:50;3.97;;;1.50;;
12110;SDS011;6119;52.372;8.990;2023-10-08T11:02:38;8.10;;;1.70;;
12110;SDS011;6119;52.372;8.990;2023-10-08T11:05:29;3.40;;;1.30;;
12110;SDS011;6119;52.372;8.990;2023-10-08T11:08:17;7.27;;;1.77;;
12110;SDS011;6119;52.372;8.990;2023-10-08T11:11:09;3.80;;;1.40;;
12110;SDS011;6119;52.372;8.990;2023-10-08T11:13:56;5.30;;;1.90;;
12110;SDS011;6119;52.372;8.990;2023-10-08T11:16:46;4.60;;;1.47;;
12110;SDS011;6119;52.372;8.990;2023-10-08T11:19:35;5.37;;;1.47;;
12110;SDS011;6119;52.372;8.990;2023-10-08T11:22:28;5.83;;;1.80;;
12110;SDS011;6119;52.372;8.990;2023-10-08T11:25:30;4.47;;;1.30;;
12110;SDS011;6119;52.372;8.990;2023-10-08T11:28:17;7.77;;;1.73;;
12110;SDS011;6119;52.372;8.990;2023-10-08T11:31:04;8.87;;;1.77;;
12110;SDS011;6119;52.372;8.990;2023-10-08T11:33:58;6.53;;;1.50;;
12110;SDS011;6119;52.372;8.990;2023-10-08T11:36:52;6.00;;;1.53;;
12110;SDS011;6119;52.372;8.990;2023-10-08T11:39:42;4.50;;;1.60;;
12110;SDS011;6119;52.372;8.990;2023-10-08T11:42:30;4.97;;;1.40;;
12110;SDS011;6119;52.372;8.990;2023-10-08T11:45:29;5.90;;;1.40;;
12110;SDS011;6119;52.372;8.990;2023-10-08T11:48:23;4.73;;;1.53;;
12110;SDS011;6119;52.372;8.990;2023-10-08T11:51:13;5.43;;;1.73;;
12110;SDS011;6119;52.372;8.990;2023-10-08T11:54:02;5.33;;;1.30;;
12110;SDS011;6119;52.372;8.990;2023-10-08T11:56:51;5.13;;;1.60;;
12110;SDS011;6119;52.372;8.990;2023-10-08T11:59:40;4.70;;;1.63;;
12110;SDS011;6119;52.372;8.990;2023-10-08T12:02:26;5.57;;;1.50;;
12110;SDS011;6119;52.372;8.990;2023-10-08T12:05:14;7.83;;;1.57;;
12110;SDS011;6119;52.372;8.990;2023-10-08T12:08:05;4.20;;;1.83;;
12110;SDS011;6119;52.372;8.990;2023-10-08T12:10:53;3.30;;;1.50;;
12110;SDS011;6119;52.372;8.990;2023-10-08T12:13:42;5.63;;;1.53;;
12110;SDS011;6119;52.372;8.990;2023-10-08T12:16:30;7.17;;;1.60;;
12110;SDS011;6119;52.372;8.990;2023-10-08T12:19:20;7.63;;;1.40;;
12110;SDS011;6119;52.372;8.990;2023-10-08T12:22:07;6.53;;;1.80;;
12110;SDS011;6119;52.372;8.990;2023-10-08T12:24:54;2.47;;;1.20;;
12110;SDS011;6119;52.372;8.990;2023-10-08T12:27:41;4.77;;;1.50;;
12110;SDS011;6119;52.372;8.990;2023-10-08T12:30:29;6.80;;;1.40;;
12110;SDS011;6119;52.372;8.990;2023-10-08T12:33:16;4.17;;;1.47;;
12110;SDS011;6119;52.372;8.990;2023-10-08T12:36:05;7.03;;;1.50;;
12110;SDS011;6119;52.372;8.990;2023-10-08T12:38:57;7.03;;;1.70;;
12110;SDS011;6119;52.372;8.990;2023-10-08T12:41:44;4.50;;;1.60;;
12110;SDS011;6119;52.372;8.990;2023-10-08T12:44:31;8.57;;;1.50;;
12110;SDS011;6119;52.372;8.990;2023-10-08T12:47:20;4.17;;;1.30;;
12110;SDS011;6119;52.372;8.990;2023-10-08T12:50:08;4.77;;;1.83;;
12110;SDS011;6119;52.372;8.990;2023-10-08T12:53:01;8.63;;;1.80;;
12110;SDS011;6119;52.372;8.990;2023-10-08T12:55:49;9.40;;;1.80;;
12110;SDS011;6119;52.372;8.990;2023-10-08T12:58:39;7.00;;;1.73;;
12110;SDS011;6119;52.372;8.990;2023-10-08T13:01:26;6.47;;;1.50;;
12110;SDS011;6119;52.372;8.990;2023-10-08T13:04:16;8.43;;;1.97;;
12110;SDS011;6119;52.372;8.990;2023-10-08T13:07:10;4.10;;;1.47;;
12110;SDS011;6119;52.372;8.990;2023-10-08T13:09:59;7.20;;;1.70;;
12110;SDS011;6119;52.372;8.990;2023-10-08T13:12:45;6.80;;;1.57;;
12110;SDS011;6119;52.372;8.990;2023-10-08T13:15:32;5.67;;;1.67;;
12110;SDS011;6119;52.372;8.990;2023-10-08T13:18:20;5.90;;;1.53;;
12110;SDS011;6119;52.372;8.990;2023-10-08T13:21:08;7.17;;;1.93;;
12110;SDS011;6119;52.372;8.990;2023-10-08T13:23:55;3.77;;;1.37;;
12110;SDS011;6119;52.372;8.990;2023-10-08T13:26:44;8.77;;;1.77;;
12110;SDS011;6119;52.372;8.990;2023-10-08T13:29:33;2.97;;;1.43;;
12110;SDS011;6119;52.372;8.990;2023-10-08T13:32:20;7.73;;;1.50;;
12110;SDS011;6119;52.372;8.990;2023-10-08T13:35:07;5.97;;;1.70;;
12110;SDS011;6119;52.372;8.990;2023-10-08T13:37:57;3.60;;;1.50;;
12110;SDS011;6119;52.372;8.990;2023-10-08T13:40:45;3.90;;;1.50;;
12110;SDS011;6119;52.372;8.990;2023-10-08T13:43:46;5.47;;;2.20;;
12110;SDS011;6119;52.372;8.990;2023-10-08T13:46:37;5.43;;;1.53;;
12110;SDS011;6119;52.372;8.990;2023-10-08T13:49:28;4.47;;;1.70;;
12110;SDS011;6119;52.372;8.990;2023-10-08T13:52:15;2.47;;;1.23;;
12110;SDS011;6119;52.372;8.990;2023-10-08T13:55:04;3.53;;;1.30;;
12110;SDS011;6119;52.372;8.990;2023-10-08T13:57:51;5.30;;;1.30;;
12110;SDS011;6119;52.372;8.990;2023-10-08T14:00:39;2.80;;;1.30;;
12110;SDS011;6119;52.372;8.990;2023-10-08T14:03:25;5.57;;;1.73;;
12110;SDS011;6119;52.372;8.990;2023-10-08T14:06:15;3.80;;;1.43;;
12110;SDS011;6119;52.372;8.990;2023-10-08T14:09:02;4.87;;;1.67;;
12110;SDS011;6119;52.372;8.990;2023-10-08T14:11:54;7.63;;;1.77;;
12110;SDS011;6119;52.372;8.990;2023-10-08T14:14:41;5.77;;;1.80;;
12110;SDS011;6119;52.372;8.990;2023-10-08T14:17:31;3.07;;;1.43;;
12110;SDS011;6119;52.372;8.990;2023-10-08T14:20:28;4.90;;;1.30;;
12110;SDS011;6119;52.372;8.990;2023-10-08T14:23:17;7.30;;;1.40;;
12110;SDS011;6119;52.372;8.990;2023-10-08T14:26:07;5.00;;;1.40;;
12110;SDS011;6119;52.372;8.990;2023-10-08T14:28:55;5.60;;;1.67;;
12110;SDS011;6119;52.372;8.990;2023-10-08T14:31:43;4.67;;;1.53;;
12110;SDS011;6119;52.372;8.990;2023-10-08T14:34:34;7.27;;;1.50;;
12110;SDS011;6119;52.372;8.990;2023-10-08T14:37:38;3.20;;;1.30;;
12110;SDS011;6119;52.372;8.990;2023-10-08T14:40:43;5.60;;;1.60;;
12110;SDS011;6119;52.372;8.990;2023-10-08T14:43:47;4.47;;;1.67;;
12110;SDS011;6119;52.372;8.990;2023-10-08T14:46:36;7.77;;;1.50;;
12110;SDS011;6119;52.372;8.990;2023-10-08T14:49:22;5.77;;;1.33;;
12110;SDS011;6119;52.372;8.990;2023-10-08T14:52:10;5.30;;;1.57;;
12110;SDS011;6119;52.372;8.990;2023-10-08T14:54:56;7.60;;;1.93;;
12110;SDS011;6119;52.372;8.990;2023-10-08T14:57:43;9.70;;;1.40;;
12110;SDS011;6119;52.372;8.990;2023-10-08T15:00:29;7.20;;;1.27;;
12110;SDS011;6119;52.372;8.990;2023-10-08T15:03:18;4.37;;;1.73;;
12110;SDS011;6119;52.372;8.990;2023-10-08T15:06:06;4.73;;;1.50;;
12110;SDS011;6119;52.372;8.990;2023-10-08T15:08:55;4.93;;;1.20;;
12110;SDS011;6119;52.372;8.990;2023-10-08T15:11:42;4.40;;;1.87;;
12110;SDS011;6119;52.372;8.990;2023-10-08T15:14:31;4.17;;;1.73;;
12110;SDS011;6119;52.372;8.990;2023-10-08T15:17:18;7.30;;;1.80;;
12110;SDS011;6119;52.372;8.990;2023-10-08T15:20:08;4.70;;;1.60;;
12110;SDS011;6119;52.372;8.990;2023-10-08T15:22:59;7.13;;;1.37;;
12110;SDS011;6119;52.372;8.990;2023-10-08T15:25:47;2.93;;;1.10;;
12110;SDS011;6119;52.372;8.990;2023-10-08T15:28:35;4.30;;;1.60;;
12110;SDS011;6119;52.372;8.990;2023-10-08T15:31:21;2.30;;;1.30;;
12110;SDS011;6119;52.372;8.990;2023-10-08T15:34:09;4.67;;;1.73;;
12110;SDS011;6119;52.372;8.990;2023-10-08T15:37:18;3.53;;;1.30;;
12110;SDS011;6119;52.372;8.990;2023-10-08T15:40:05;4.40;;;1.50;;
12110;SDS011;6119;52.372;8.990;2023-10-08T15:42:53;6.33;;;1.43;;
12110;SDS011;6119;52.372;8.990;2023-10-08T15:45:42;4.67;;;1.47;;
12110;SDS011;6119;52.372;8.990;2023-10-08T15:48:30;4.77;;;1.23;;
12110;SDS011;6119;52.372;8.990;2023-10-08T15:51:17;2.93;;;1.20;;
12110;SDS011;6119;52.372;8.990;2023-10-08T15:54:05;5.10;;;1.50;;
12110;SDS011;6119;52.372;8.990;2023-10-08T15:56:53;2.93;;;1.37;;
12110;SDS011;6119;52.372;8.990;2023-10-08T15:59:39;5.27;;;1.30;;
12110;SDS011;6119;52.372;8.990;2023-10-08T16:02:27;3.63;;;1.50;;
12110;SDS011;6119;52.372;8.990;2023-10-08T16:05:14;6.97;;;1.40;;
12110;SDS011;6119;52.372;8.990;2023-10-08T16:08:02;5.03;;;1.23;;
12110;SDS011;6119;52.372;8.990;2023-10-08T16:10:50;3.13;;;1.30;;
12110;SDS011;6119;52.372;8.990;2023-10-08T16:13:37;4.90;;;2.00;;
12110;SDS011;6119;52.372;8.990;2023-10-08T16:16:25;4.17;;;1.30;;
12110;SDS011;6119;52.372;8.990;2023-10-08T16:19:12;2.83;;;1.20;;
12110;SDS011;6119;52.372;8.990;2023-10-08T16:22:00;4.63;;;1.50;;
12110;SDS011;6119;52.372;8.990;2023-10-08T16:24:47;4.50;;;1.50;;
12110;SDS011;6119;52.372;8.990;2023-10-08T16:27:35;5.23;;;1.93;;
12110;SDS011;6119;52.372;8.990;2023-10-08T16:30:23;3.83;;;1.23;;
12110;SDS011;6119;52.372;8.990;2023-10-08T16:33:12;4.37;;;1.53;;
12110;SDS011;6119;52.372;8.990;2023-10-08T16:36:00;1.97;;;1.20;;
12110;SDS011;6119;52.372;8.990;2023-10-08T16:38:52;1.97;;;1.30;;
12110;SDS011;6119;52.372;8.990;2023-10-08T16:41:39;6.83;;;1.40;;
12110;SDS011;6119;52.372;8.990;2023-10-08T16:44:27;1.87;;;1.30;;
12110;SDS011;6119;52.372;8.990;2023-10-08T16:47:14;2.67;;;1.33;;
12110;SDS011;6119;52.372;8.990;2023-10-08T16:50:02;4.47;;;1.40;;
12110;SDS011;6119;52.372;8.990;2023-10-08T16:52:49;7.03;;;1.90;;
12110;SDS011;6119;52.372;8.990;2023-10-08T16:55:39;3.03;;;1.10;;
12110;SDS011;6119;52.372;8.990;2023-10-08T16:58:26;3.50;;;1.10;;
12110;SDS011;6119;52.372;8.990;2023-10-08T17:01:14;3.27;;;1.27;;
12110;SDS011;6119;52.372;8.990;2023-10-08T17:04:01;5.43;;;1.30;;
12110;SDS011;6119;52.372;8.990;2023-10-08T17:06:50;2.93;;;1.20;;
12110;SDS011;6119;52.372;8.990;2023-10-08T17:09:37;4.77;;;1.10;;
12110;SDS011;6119;52.372;8.990;2023-10-08T17:12:24;4.67;;;1.47;;
12110;SDS011;6119;52.372;8.990;2023-10-08T17:15:11;3.40;;;1.40;;
12110;SDS011;6119;52.372;8.990;2023-10-08T17:18:01;2.97;;;1.23;;
12110;SDS011;6119;52.372;8.990;2023-10-08T17:20:48;3.13;;;1.20;;
12110;SDS011;6119;52.372;8.990;2023-10-08T17:23:35;3.83;;;1.50;;
12110;SDS011;6119;52.372;8.990;2023-10-08T17:26:23;7.00;;;1.60;;